This is the latest recevied weather packets stored in our database for station/object KC3SOZ. If no packets are shown the sender has not sent any weather packets the latest 10 day(s).
| Time | Temp. | Humidity | Pressure | Rain* | Wind** | Luminosity | Snow |
|---|---|---|---|---|---|---|---|
| 1777968767 | 13.33° C | 94% | 1010.2 hPa | 0 mm | - | 0 W/m² | - |
| 1777968463 | 13.33° C | 95% | 1010.4 hPa | 0 mm | - | 0 W/m² | - |
| 1777968159 | 13.33° C | 94% | 1010.1 hPa | 0 mm | - | 0 W/m² | - |
| 1777967855 | 13.33° C | 94% | 1010.3 hPa | 0 mm | - | 0 W/m² | - |
| 1777967552 | 12.78° C | 98% | 1010.2 hPa | 0 mm | - | 0 W/m² | - |
| 1777967249 | 13.33° C | 98% | 1010.2 hPa | 0 mm | - | 0 W/m² | - |
| 1777966947 | 13.33° C | 98% | 1010.3 hPa | 0 mm | - | 0 W/m² | - |
| 1777966644 | 13.33° C | 98% | 1010.3 hPa | 0 mm | - | 0 W/m² | - |
| 1777966342 | 13.89° C | 98% | 1010.1 hPa | 0 mm | - | 0 W/m² | - |
| 1777966038 | 14.44° C | 95% | 1010.2 hPa | 0 mm | - | 0 W/m² | - |
| 1777965734 | 15° C | 90% | 1010.4 hPa | 0 mm | - | 0 W/m² | - |
| 1777965429 | 15° C | 83% | 1010.4 hPa | 0 mm | - | 0 W/m² | - |
| 1777965127 | 14.44° C | 89% | 1010.5 hPa | 0 mm | - | 0 W/m² | - |
| 1777964825 | 14.44° C | 88% | 1009.8 hPa | 0 mm | - | 0 W/m² | - |
| 1777964521 | 14.44° C | 90% | 1009.6 hPa | 0 mm | - | 0 W/m² | - |
| 1777964216 | 15.56° C | 83% | 1009.4 hPa | 3.56 mm | - | 0 W/m² | - |
| 1777963914 | 15.56° C | 79% | 1010.3 hPa | 1.78 mm | - | 0 W/m² | - |
| 1777963611 | 15° C | 79% | 1010.4 hPa | 0 mm | - | 0 W/m² | - |
| 1777963309 | 14.44° C | 78% | 1010 hPa | 0 mm | - | 0 W/m² | - |
| 1777963006 | 15° C | 77% | 1010 hPa | 0 mm | - | 0 W/m² | - |
| 1777962702 | 15° C | 77% | 1009.9 hPa | 0 mm | - | 0 W/m² | - |
| 1777962398 | 15.56° C | 76% | 1010.1 hPa | 0 mm | - | 0 W/m² | - |
| 1777962096 | 14.44° C | 77% | 1010.1 hPa | 0 mm | - | 0 W/m² | - |
| 1777961793 | 15° C | 76% | 1009.9 hPa | 0 mm | - | 0 W/m² | - |
| 1777961491 | 15° C | 75% | 1010 hPa | 0 mm | - | 0 W/m² | - |
* Rain latest hour (hover to see other rain measurements)
** Current wind speed in m/s (hover to see current wind gust speed)